createdAt,value
2023-10-26T00:00:51.000Z,0
2023-10-26T00:01:52.000Z,0
2023-10-26T00:02:52.000Z,0
2023-10-26T00:03:53.000Z,0
2023-10-26T00:04:54.000Z,0
2023-10-26T00:05:54.000Z,0
2023-10-26T00:06:55.000Z,0
2023-10-26T00:08:03.000Z,0
2023-10-26T00:09:03.000Z,0
2023-10-26T00:10:04.000Z,0
2023-10-26T00:11:05.000Z,0
2023-10-26T00:12:05.000Z,0
2023-10-26T00:13:06.000Z,0
2023-10-26T00:14:07.000Z,0
2023-10-26T00:15:07.000Z,0
2023-10-26T00:16:08.000Z,0
2023-10-26T00:17:08.000Z,0
2023-10-26T00:18:09.000Z,0
2023-10-26T00:19:10.000Z,0
2023-10-26T00:20:10.000Z,0
2023-10-26T00:21:11.000Z,0
2023-10-26T00:22:11.000Z,0
2023-10-26T00:23:12.000Z,0
2023-10-26T00:24:13.000Z,0
2023-10-26T00:25:13.000Z,0
2023-10-26T00:26:14.000Z,0
2023-10-26T00:27:15.000Z,0
2023-10-26T00:28:15.000Z,0
2023-10-26T00:29:16.000Z,0
2023-10-26T00:30:17.000Z,0
2023-10-26T00:31:17.000Z,0
2023-10-26T00:32:18.000Z,0
2023-10-26T00:33:18.000Z,0
2023-10-26T00:34:19.000Z,0
2023-10-26T00:35:20.000Z,0
2023-10-26T00:36:20.000Z,0
2023-10-26T00:37:28.000Z,0
2023-10-26T00:38:29.000Z,0
2023-10-26T00:39:29.000Z,0
2023-10-26T00:40:30.000Z,0
2023-10-26T00:41:31.000Z,0
2023-10-26T00:42:31.000Z,0
2023-10-26T00:43:32.000Z,0
2023-10-26T00:44:33.000Z,0
2023-10-26T00:45:33.000Z,0
2023-10-26T00:46:34.000Z,0
2023-10-26T00:47:34.000Z,0
2023-10-26T00:48:35.000Z,0
2023-10-26T00:49:36.000Z,0
2023-10-26T00:50:36.000Z,0
2023-10-26T00:51:37.000Z,0
2023-10-26T00:52:38.000Z,0
2023-10-26T00:53:38.000Z,0
2023-10-26T00:54:39.000Z,0
2023-10-26T00:55:42.000Z,0
2023-10-26T00:56:43.000Z,0
2023-10-26T00:57:44.000Z,0
2023-10-26T00:58:44.000Z,0
2023-10-26T00:59:45.000Z,0
2023-10-26T01:00:46.000Z,0
2023-10-26T01:01:46.000Z,0
2023-10-26T01:02:47.000Z,0
2023-10-26T01:03:48.000Z,0
2023-10-26T01:04:48.000Z,0
2023-10-26T01:05:49.000Z,0
2023-10-26T01:06:49.000Z,0
2023-10-26T01:07:57.000Z,0
2023-10-26T01:08:58.000Z,0
2023-10-26T01:09:59.000Z,0
2023-10-26T01:10:59.000Z,0
2023-10-26T01:12:00.000Z,0
2023-10-26T01:13:00.000Z,0
2023-10-26T01:14:01.000Z,0
2023-10-26T01:15:02.000Z,0
2023-10-26T01:16:02.000Z,0
2023-10-26T01:17:03.000Z,0
2023-10-26T01:18:04.000Z,0
2023-10-26T01:19:04.000Z,0
2023-10-26T01:20:05.000Z,0
2023-10-26T01:21:13.000Z,0
2023-10-26T01:22:17.000Z,0
2023-10-26T01:23:17.000Z,0
2023-10-26T01:24:18.000Z,0
2023-10-26T01:25:18.000Z,0
2023-10-26T01:26:19.000Z,0
2023-10-26T01:27:20.000Z,0
2023-10-26T01:28:20.000Z,0
2023-10-26T01:29:21.000Z,0
2023-10-26T01:30:22.000Z,0
2023-10-26T01:31:22.000Z,0
2023-10-26T01:32:23.000Z,0
2023-10-26T01:33:23.000Z,0
2023-10-26T01:34:24.000Z,0
2023-10-26T01:35:32.000Z,0
2023-10-26T01:36:33.000Z,0
2023-10-26T01:37:33.000Z,0
2023-10-26T01:38:34.000Z,0
2023-10-26T01:39:34.000Z,0
2023-10-26T01:40:35.000Z,0
2023-10-26T01:41:36.000Z,0
2023-10-26T01:42:36.000Z,0
2023-10-26T01:43:37.000Z,0
2023-10-26T01:44:37.000Z,0
2023-10-26T01:45:38.000Z,0
2023-10-26T01:46:39.000Z,0
2023-10-26T01:47:39.000Z,0
2023-10-26T01:48:40.000Z,0
2023-10-26T01:49:41.000Z,0
2023-10-26T01:50:44.000Z,0
2023-10-26T01:51:45.000Z,0
2023-10-26T01:52:46.000Z,0
2023-10-26T01:53:46.000Z,0
2023-10-26T01:54:47.000Z,0
2023-10-26T01:55:47.000Z,0
2023-10-26T01:56:48.000Z,0
2023-10-26T01:57:49.000Z,0
2023-10-26T01:58:49.000Z,0
2023-10-26T01:59:50.000Z,0
2023-10-26T02:00:51.000Z,0
2023-10-26T02:01:51.000Z,0
2023-10-26T02:02:52.000Z,0
2023-10-26T02:04:00.000Z,0
2023-10-26T02:05:00.000Z,0
2023-10-26T02:06:01.000Z,0
2023-10-26T02:07:02.000Z,0
2023-10-26T02:08:02.000Z,0
2023-10-26T02:09:03.000Z,0
2023-10-26T02:10:04.000Z,0
2023-10-26T02:11:04.000Z,0
2023-10-26T02:12:05.000Z,0
2023-10-26T02:13:05.000Z,0
2023-10-26T02:14:06.000Z,0
2023-10-26T02:15:07.000Z,0
2023-10-26T02:16:07.000Z,0
2023-10-26T02:17:15.000Z,0
2023-10-26T02:18:16.000Z,0
2023-10-26T02:19:17.000Z,0
2023-10-26T02:20:17.000Z,0
2023-10-26T02:21:18.000Z,0
2023-10-26T02:22:18.000Z,0
2023-10-26T02:23:19.000Z,0
2023-10-26T02:24:20.000Z,0
2023-10-26T02:25:20.000Z,0
2023-10-26T02:26:21.000Z,0
2023-10-26T02:27:22.000Z,0
2023-10-26T02:28:25.000Z,0
2023-10-26T02:29:26.000Z,0
2023-10-26T02:30:27.000Z,0
2023-10-26T02:31:28.000Z,0
2023-10-26T02:32:28.000Z,0
2023-10-26T02:33:36.000Z,0
2023-10-26T02:34:37.000Z,0
2023-10-26T02:35:37.000Z,0
2023-10-26T02:36:38.000Z,0
2023-10-26T02:37:39.000Z,0
2023-10-26T02:38:39.000Z,0
2023-10-26T02:39:40.000Z,0
2023-10-26T02:40:40.000Z,0
2023-10-26T02:41:41.000Z,0
2023-10-26T02:42:42.000Z,0
2023-10-26T02:43:42.000Z,0
2023-10-26T02:44:43.000Z,0
2023-10-26T02:45:44.000Z,0
2023-10-26T02:46:44.000Z,0
2023-10-26T02:47:45.000Z,0
2023-10-26T02:48:46.000Z,0
2023-10-26T02:49:46.000Z,0
2023-10-26T02:50:48.000Z,0
2023-10-26T02:51:49.000Z,0
2023-10-26T02:52:49.000Z,0
2023-10-26T02:53:50.000Z,0
2023-10-26T02:54:58.000Z,0
2023-10-26T02:55:58.000Z,0
2023-10-26T02:56:59.000Z,0
2023-10-26T02:58:00.000Z,0
2023-10-26T02:59:00.000Z,0
2023-10-26T03:00:01.000Z,0
2023-10-26T03:01:02.000Z,0
2023-10-26T03:02:02.000Z,0
2023-10-26T03:03:04.000Z,0
2023-10-26T03:04:15.000Z,0
2023-10-26T03:05:15.000Z,0
2023-10-26T03:06:23.000Z,0
2023-10-26T03:07:24.000Z,0
2023-10-26T03:08:24.000Z,0
2023-10-26T03:09:25.000Z,0
2023-10-26T03:10:26.000Z,0
2023-10-26T03:11:27.000Z,0
2023-10-26T03:12:27.000Z,0
2023-10-26T03:13:28.000Z,0
2023-10-26T03:14:28.000Z,0
2023-10-26T03:15:29.000Z,0
2023-10-26T03:16:30.000Z,0
2023-10-26T03:17:30.000Z,0
2023-10-26T03:18:31.000Z,0
2023-10-26T03:19:32.000Z,0
2023-10-26T03:20:32.000Z,0
2023-10-26T03:21:33.000Z,0
2023-10-26T03:22:33.000Z,0
2023-10-26T03:23:34.000Z,0
2023-10-26T03:24:35.000Z,0
2023-10-26T03:25:35.000Z,0
2023-10-26T03:26:46.000Z,0
2023-10-26T03:27:47.000Z,0
2023-10-26T03:28:50.000Z,0
2023-10-26T03:29:51.000Z,0
2023-10-26T03:30:52.000Z,0
2023-10-26T03:31:52.000Z,0
2023-10-26T03:32:53.000Z,0
2023-10-26T03:33:54.000Z,0
2023-10-26T03:34:54.000Z,0
2023-10-26T03:35:55.000Z,0
2023-10-26T03:36:55.000Z,0
2023-10-26T03:37:59.000Z,0
2023-10-26T03:39:00.000Z,0
2023-10-26T03:40:00.000Z,0
2023-10-26T03:41:01.000Z,0
2023-10-26T03:42:02.000Z,0
2023-10-26T03:43:02.000Z,0
2023-10-26T03:44:03.000Z,0
2023-10-26T03:45:04.000Z,0
2023-10-26T03:46:07.000Z,0
2023-10-26T03:47:08.000Z,0
2023-10-26T03:48:09.000Z,0
2023-10-26T03:49:09.000Z,0
2023-10-26T03:50:10.000Z,0
2023-10-26T03:51:10.000Z,0
2023-10-26T03:52:14.000Z,0
2023-10-26T03:53:15.000Z,0
2023-10-26T03:54:15.000Z,0
2023-10-26T03:55:23.000Z,0
2023-10-26T03:56:27.000Z,0
2023-10-26T03:57:28.000Z,0
2023-10-26T03:58:28.000Z,0
2023-10-26T03:59:29.000Z,0
2023-10-26T04:00:29.000Z,0
2023-10-26T04:01:30.000Z,0
2023-10-26T04:02:31.000Z,0
2023-10-26T04:03:31.000Z,0
2023-10-26T04:04:32.000Z,0
2023-10-26T04:05:33.000Z,0
2023-10-26T04:06:33.000Z,0
2023-10-26T04:07:34.000Z,0
2023-10-26T04:08:35.000Z,0
2023-10-26T04:09:35.000Z,0
2023-10-26T04:10:36.000Z,0
2023-10-26T04:11:37.000Z,0
2023-10-26T04:12:37.000Z,0
2023-10-26T04:13:38.000Z,0
2023-10-26T04:14:38.000Z,0
2023-10-26T04:15:39.000Z,0
2023-10-26T04:16:40.000Z,0
2023-10-26T04:17:40.000Z,0
2023-10-26T04:18:41.000Z,0
2023-10-26T04:19:49.000Z,0
2023-10-26T04:20:49.000Z,0
2023-10-26T04:21:50.000Z,0
2023-10-26T04:22:51.000Z,0
2023-10-26T04:23:51.000Z,0
2023-10-26T04:24:52.000Z,0
2023-10-26T04:25:53.000Z,0
2023-10-26T04:26:53.000Z,0
2023-10-26T04:28:01.000Z,0
2023-10-26T04:29:02.000Z,0
2023-10-26T04:30:02.000Z,0
2023-10-26T04:31:03.000Z,0
2023-10-26T04:32:04.000Z,0
2023-10-26T04:33:04.000Z,0
2023-10-26T04:34:05.000Z,0
2023-10-26T04:35:05.000Z,0
2023-10-26T04:36:06.000Z,0
2023-10-26T04:37:07.000Z,0
2023-10-26T04:38:07.000Z,0
2023-10-26T04:39:08.000Z,0
2023-10-26T04:40:08.000Z,0
2023-10-26T04:41:09.000Z,0
2023-10-26T04:42:10.000Z,0
2023-10-26T04:43:10.000Z,0
2023-10-26T04:44:14.000Z,0
2023-10-26T04:45:15.000Z,0
2023-10-26T04:46:15.000Z,0
2023-10-26T04:47:16.000Z,0
2023-10-26T04:48:17.000Z,0
2023-10-26T04:49:17.000Z,0
2023-10-26T04:50:18.000Z,0
2023-10-26T04:51:19.000Z,0
2023-10-26T04:52:19.000Z,0
2023-10-26T04:53:20.000Z,0
2023-10-26T04:54:21.000Z,0
2023-10-26T04:55:21.000Z,0
2023-10-26T04:56:22.000Z,0
2023-10-26T04:57:23.000Z,0
2023-10-26T04:58:23.000Z,0
2023-10-26T04:59:24.000Z,0
2023-10-26T05:00:24.000Z,0
2023-10-26T05:01:25.000Z,0
2023-10-26T05:02:26.000Z,0
2023-10-26T05:03:26.000Z,0
2023-10-26T05:04:27.000Z,0
2023-10-26T05:05:28.000Z,0
2023-10-26T05:06:28.000Z,0
2023-10-26T05:07:29.000Z,0
2023-10-26T05:08:29.000Z,0
2023-10-26T05:09:30.000Z,0
2023-10-26T05:10:31.000Z,0
2023-10-26T05:11:31.000Z,0
2023-10-26T05:12:32.000Z,0
2023-10-26T05:13:33.000Z,0
2023-10-26T05:14:40.000Z,1
2023-10-26T05:15:41.000Z,1
2023-10-26T05:16:42.000Z,1
2023-10-26T05:17:42.000Z,1
2023-10-26T05:18:43.000Z,1
2023-10-26T05:19:44.000Z,1
2023-10-26T05:20:44.000Z,1
2023-10-26T05:21:45.000Z,1
2023-10-26T05:22:46.000Z,2
2023-10-26T05:23:47.000Z,1
2023-10-26T05:24:47.000Z,2
2023-10-26T05:25:48.000Z,2
2023-10-26T05:26:49.000Z,3
2023-10-26T05:27:49.000Z,3
2023-10-26T05:28:50.000Z,3
2023-10-26T05:29:58.000Z,4
2023-10-26T05:31:02.000Z,4
2023-10-26T05:32:02.000Z,5
2023-10-26T05:33:03.000Z,7
2023-10-26T05:34:04.000Z,7
2023-10-26T05:35:04.000Z,9
2023-10-26T05:36:05.000Z,10
2023-10-26T05:37:06.000Z,13
2023-10-26T05:38:06.000Z,14
2023-10-26T05:39:07.000Z,19
2023-10-26T05:40:08.000Z,20
2023-10-26T05:41:08.000Z,21
2023-10-26T05:42:09.000Z,28
2023-10-26T05:43:09.000Z,29
2023-10-26T05:44:10.000Z,39
2023-10-26T05:45:11.000Z,43
2023-10-26T05:46:11.000Z,50
2023-10-26T05:47:12.000Z,49
2023-10-26T05:48:20.000Z,56
2023-10-26T05:49:21.000Z,65
2023-10-26T05:50:21.000Z,73
2023-10-26T05:51:22.000Z,82
2023-10-26T05:52:22.000Z,77
2023-10-26T05:53:23.000Z,85
2023-10-26T05:54:24.000Z,84
2023-10-26T05:55:24.000Z,92
2023-10-26T05:56:25.000Z,97
2023-10-26T05:57:25.000Z,104
2023-10-26T05:58:26.000Z,89
2023-10-26T05:59:27.000Z,97
2023-10-26T06:00:27.000Z,106
2023-10-26T06:01:28.000Z,120
2023-10-26T06:02:29.000Z,145
2023-10-26T06:03:29.000Z,161
2023-10-26T06:04:30.000Z,169
2023-10-26T06:05:30.000Z,203
2023-10-26T06:06:31.000Z,213
2023-10-26T06:07:32.000Z,256
2023-10-26T06:08:32.000Z,274
2023-10-26T06:09:33.000Z,297
2023-10-26T06:10:34.000Z,304
2023-10-26T06:11:36.000Z,366
2023-10-26T06:12:37.000Z,464
2023-10-26T06:13:38.000Z,482
2023-10-26T06:14:38.000Z,590
2023-10-26T06:15:39.000Z,623
2023-10-26T06:16:39.000Z,612
2023-10-26T06:17:40.000Z,582
2023-10-26T06:18:41.000Z,564
2023-10-26T06:19:41.000Z,580
2023-10-26T06:20:42.000Z,588
2023-10-26T06:21:43.000Z,619
2023-10-26T06:22:43.000Z,647
2023-10-26T06:23:44.000Z,575
2023-10-26T06:24:44.000Z,637
2023-10-26T06:25:45.000Z,719
2023-10-26T06:26:46.000Z,782
2023-10-26T06:27:46.000Z,746
2023-10-26T06:28:47.000Z,745
2023-10-26T06:29:48.000Z,821
2023-10-26T06:30:48.000Z,788
2023-10-26T06:31:49.000Z,790
2023-10-26T06:32:49.000Z,847
2023-10-26T06:33:50.000Z,881
2023-10-26T06:34:51.000Z,960
2023-10-26T06:35:51.000Z,1026
2023-10-26T06:36:52.000Z,1124
2023-10-26T06:37:53.000Z,1159
2023-10-26T06:38:53.000Z,1211
2023-10-26T06:39:54.000Z,1301
2023-10-26T06:40:55.000Z,1531
2023-10-26T06:41:55.000Z,1500
2023-10-26T06:42:56.000Z,1653
2023-10-26T06:43:57.000Z,1611
2023-10-26T06:44:57.000Z,1599
2023-10-26T06:45:58.000Z,1759
2023-10-26T06:46:58.000Z,1587
2023-10-26T06:48:06.000Z,1696
2023-10-26T06:49:07.000Z,1672
2023-10-26T06:50:08.000Z,1650
2023-10-26T06:51:08.000Z,1808
2023-10-26T06:52:09.000Z,1784
2023-10-26T06:53:13.000Z,1592
2023-10-26T06:54:13.000Z,1564
2023-10-26T06:55:14.000Z,1326
2023-10-26T06:56:22.000Z,1228
2023-10-26T06:57:22.000Z,1086
2023-10-26T06:58:23.000Z,1139
2023-10-26T06:59:24.000Z,1164
2023-10-26T07:00:24.000Z,1227
2023-10-26T07:01:25.000Z,1027
2023-10-26T07:02:25.000Z,900
2023-10-26T07:03:26.000Z,823
2023-10-26T07:04:27.000Z,971
2023-10-26T07:05:27.000Z,1099
2023-10-26T07:06:28.000Z,1192
2023-10-26T07:07:36.000Z,1554
2023-10-26T07:08:36.000Z,2111
2023-10-26T07:09:37.000Z,2201
2023-10-26T07:10:38.000Z,2258
2023-10-26T07:11:38.000Z,2305
2023-10-26T07:12:39.000Z,2639
2023-10-26T07:13:43.000Z,2254
2023-10-26T07:14:43.000Z,2577
2023-10-26T07:15:44.000Z,2363
2023-10-26T07:16:45.000Z,2541
2023-10-26T07:17:45.000Z,2693
2023-10-26T07:18:46.000Z,2498
2023-10-26T07:19:47.000Z,2263
2023-10-26T07:20:47.000Z,2155
2023-10-26T07:21:48.000Z,2023
2023-10-26T07:22:56.000Z,2109
2023-10-26T07:23:56.000Z,2093
2023-10-26T07:24:57.000Z,2212
2023-10-26T07:25:57.000Z,1966
2023-10-26T07:26:58.000Z,2095
2023-10-26T07:27:59.000Z,2482
2023-10-26T07:28:59.000Z,2777
2023-10-26T07:30:00.000Z,2802
2023-10-26T07:31:01.000Z,2867
2023-10-26T07:32:01.000Z,2766
2023-10-26T07:33:02.000Z,2724
2023-10-26T07:34:03.000Z,2515
2023-10-26T07:35:03.000Z,2194
2023-10-26T07:36:04.000Z,2538
2023-10-26T07:37:05.000Z,2491
2023-10-26T07:38:05.000Z,2675
2023-10-26T07:39:06.000Z,2708
2023-10-26T07:40:06.000Z,3131
2023-10-26T07:41:07.000Z,3500
2023-10-26T07:42:08.000Z,3917
2023-10-26T07:43:08.000Z,3933
2023-10-26T07:44:09.000Z,4363
2023-10-26T07:45:10.000Z,4920
2023-10-26T07:46:10.000Z,5347
2023-10-26T07:47:11.000Z,5905
2023-10-26T07:48:12.000Z,5938
2023-10-26T07:49:12.000Z,6789
2023-10-26T07:50:13.000Z,7161
2023-10-26T07:51:14.000Z,6658
2023-10-26T07:52:14.000Z,6481
2023-10-26T07:53:15.000Z,6454
2023-10-26T07:54:16.000Z,6240
2023-10-26T07:55:16.000Z,6281
2023-10-26T07:56:17.000Z,5651
2023-10-26T07:57:17.000Z,4706
2023-10-26T07:58:18.000Z,5068
2023-10-26T07:59:19.000Z,5649
2023-10-26T08:00:19.000Z,6493
2023-10-26T08:01:20.000Z,7229
2023-10-26T08:02:21.000Z,8079
2023-10-26T08:03:21.000Z,8703
2023-10-26T08:04:22.000Z,8981
2023-10-26T08:05:23.000Z,9296
2023-10-26T08:06:23.000Z,9282
2023-10-26T08:07:24.000Z,9729
2023-10-26T08:08:32.000Z,10828
2023-10-26T08:09:33.000Z,11893
2023-10-26T08:10:33.000Z,12615
2023-10-26T08:11:34.000Z,12570
2023-10-26T08:12:34.000Z,12412
2023-10-26T08:13:35.000Z,12641
2023-10-26T08:14:36.000Z,11624
2023-10-26T08:15:36.000Z,10298
2023-10-26T08:16:37.000Z,10910
2023-10-26T08:17:37.000Z,10790
2023-10-26T08:18:38.000Z,9791
2023-10-26T08:19:46.000Z,9100
2023-10-26T08:20:47.000Z,8281
2023-10-26T08:21:47.000Z,8581
2023-10-26T08:22:48.000Z,7696
2023-10-26T08:23:48.000Z,7135
2023-10-26T08:24:49.000Z,6827
2023-10-26T08:25:58.000Z,6119
2023-10-26T08:26:58.000Z,5070
2023-10-26T08:27:59.000Z,5397
2023-10-26T08:29:00.000Z,5596
2023-10-26T08:30:00.000Z,5581
2023-10-26T08:31:01.000Z,6191
2023-10-26T08:32:01.000Z,5402
2023-10-26T08:33:02.000Z,5948
2023-10-26T08:34:03.000Z,5825
2023-10-26T08:35:11.000Z,7506
2023-10-26T08:36:18.000Z,8550
2023-10-26T08:37:19.000Z,9092
2023-10-26T08:38:20.000Z,9629
2023-10-26T08:39:20.000Z,10186
2023-10-26T08:40:21.000Z,9899
2023-10-26T08:41:22.000Z,8345
2023-10-26T08:42:22.000Z,7877
2023-10-26T08:43:23.000Z,7893
2023-10-26T08:44:31.000Z,6479
2023-10-26T08:45:31.000Z,5712
2023-10-26T08:46:32.000Z,5591
2023-10-26T08:47:32.000Z,5799
2023-10-26T08:48:33.000Z,6102
2023-10-26T08:49:34.000Z,6327
2023-10-26T08:50:34.000Z,7034
2023-10-26T08:51:35.000Z,8211
2023-10-26T08:52:36.000Z,9955
2023-10-26T08:53:44.000Z,12584
2023-10-26T08:54:44.000Z,14910
2023-10-26T08:55:52.000Z,16872
2023-10-26T08:56:53.000Z,16904
2023-10-26T08:58:01.000Z,16944
2023-10-26T08:59:01.000Z,16776
2023-10-26T09:00:02.000Z,16832
2023-10-26T09:01:02.000Z,16395
2023-10-26T09:02:03.000Z,16326
2023-10-26T09:03:04.000Z,16419
2023-10-26T09:04:04.000Z,16188
2023-10-26T09:05:12.000Z,15789
2023-10-26T09:06:13.000Z,15443
2023-10-26T09:07:13.000Z,15217
2023-10-26T09:08:14.000Z,14618
2023-10-26T09:09:15.000Z,14426
2023-10-26T09:10:16.000Z,14901
2023-10-26T09:11:17.000Z,15047
2023-10-26T09:12:18.000Z,14869
2023-10-26T09:13:18.000Z,14557
2023-10-26T09:14:19.000Z,14904
2023-10-26T09:15:21.000Z,15489
2023-10-26T09:16:21.000Z,15654
2023-10-26T09:17:22.000Z,15660
2023-10-26T09:18:23.000Z,15480
2023-10-26T09:19:23.000Z,15591
2023-10-26T09:20:24.000Z,16129
2023-10-26T09:21:25.000Z,16992
2023-10-26T09:22:25.000Z,17336
2023-10-26T09:23:26.000Z,17776
2023-10-26T09:24:27.000Z,21256
2023-10-26T09:25:30.000Z,19864
2023-10-26T09:26:31.000Z,17880
2023-10-26T09:27:39.000Z,17480
2023-10-26T09:28:47.000Z,18064
2023-10-26T09:29:50.000Z,17384
2023-10-26T09:30:51.000Z,16132
2023-10-26T09:31:52.000Z,16297
2023-10-26T09:32:52.000Z,15717
2023-10-26T09:33:53.000Z,15418
2023-10-26T09:34:53.000Z,16364
2023-10-26T09:35:54.000Z,16880
2023-10-26T09:36:55.000Z,15244
2023-10-26T09:37:55.000Z,13632
2023-10-26T09:38:56.000Z,13049
2023-10-26T09:39:56.000Z,12828
2023-10-26T09:40:57.000Z,11990
2023-10-26T09:41:58.000Z,11655
2023-10-26T09:42:58.000Z,12102
2023-10-26T09:43:59.000Z,11994
2023-10-26T09:45:00.000Z,11996
2023-10-26T09:46:00.000Z,10675
2023-10-26T09:47:01.000Z,10684
2023-10-26T09:48:03.000Z,11958
2023-10-26T09:49:11.000Z,13727
2023-10-26T09:50:21.000Z,15682
2023-10-26T09:51:29.000Z,14654
2023-10-26T09:52:33.000Z,13755
2023-10-26T09:53:33.000Z,14141
2023-10-26T09:54:34.000Z,14722
2023-10-26T09:55:35.000Z,15295
2023-10-26T09:56:35.000Z,15659
2023-10-26T09:57:36.000Z,16688
2023-10-26T09:58:37.000Z,16568
2023-10-26T09:59:40.000Z,17600
2023-10-26T10:00:41.000Z,17856
2023-10-26T10:01:41.000Z,18216
2023-10-26T10:02:42.000Z,18096
2023-10-26T10:03:43.000Z,18008
2023-10-26T10:04:43.000Z,18064
2023-10-26T10:05:44.000Z,19352
2023-10-26T10:06:45.000Z,21312
2023-10-26T10:07:45.000Z,22608
2023-10-26T10:08:46.000Z,23832
2023-10-26T10:09:46.000Z,25168
2023-10-26T10:10:47.000Z,25632
2023-10-26T10:11:48.000Z,25720
2023-10-26T10:12:48.000Z,24984
2023-10-26T10:13:49.000Z,24272
2023-10-26T10:14:50.000Z,22920
2023-10-26T10:15:50.000Z,22080
2023-10-26T10:16:51.000Z,21608
2023-10-26T10:17:51.000Z,20720
2023-10-26T10:18:52.000Z,20712
2023-10-26T10:19:53.000Z,20720
2023-10-26T10:20:53.000Z,22448
2023-10-26T10:21:54.000Z,23552
2023-10-26T10:22:55.000Z,24192
2023-10-26T10:23:55.000Z,23064
2023-10-26T10:24:56.000Z,21936
2023-10-26T10:25:56.000Z,20952
2023-10-26T10:26:57.000Z,19672
2023-10-26T10:27:58.000Z,18344
2023-10-26T10:28:58.000Z,17400
2023-10-26T10:29:59.000Z,17376
2023-10-26T10:31:00.000Z,16896
2023-10-26T10:32:00.000Z,17096
2023-10-26T10:33:11.000Z,17592
2023-10-26T10:34:11.000Z,17600
2023-10-26T10:35:12.000Z,17104
2023-10-26T10:36:13.000Z,16029
2023-10-26T10:37:13.000Z,15358
2023-10-26T10:38:14.000Z,15161
2023-10-26T10:39:15.000Z,15605
2023-10-26T10:40:15.000Z,16680
2023-10-26T10:41:17.000Z,17776
2023-10-26T10:42:18.000Z,18592
2023-10-26T10:43:18.000Z,19624
2023-10-26T10:44:19.000Z,20104
2023-10-26T10:45:20.000Z,19888
2023-10-26T10:46:20.000Z,19088
2023-10-26T10:47:21.000Z,18128
2023-10-26T10:48:22.000Z,17400
2023-10-26T10:49:22.000Z,16157
2023-10-26T10:50:26.000Z,14374
2023-10-26T10:51:27.000Z,13255
2023-10-26T10:52:27.000Z,13239
2023-10-26T10:53:28.000Z,13486
2023-10-26T10:54:29.000Z,13253
2023-10-26T10:55:29.000Z,13246
2023-10-26T10:56:30.000Z,12258
2023-10-26T10:57:31.000Z,10606
2023-10-26T10:58:31.000Z,9052
2023-10-26T10:59:32.000Z,8139
2023-10-26T11:00:32.000Z,7704
2023-10-26T11:01:40.000Z,7225
2023-10-26T11:02:41.000Z,6767
2023-10-26T11:03:51.000Z,6190
2023-10-26T11:04:52.000Z,6029
2023-10-26T11:05:53.000Z,5986
2023-10-26T11:06:53.000Z,5792
2023-10-26T11:07:54.000Z,5332
2023-10-26T11:08:55.000Z,5274
2023-10-26T11:09:56.000Z,6095
2023-10-26T11:10:57.000Z,6812
2023-10-26T11:11:58.000Z,7115
2023-10-26T11:12:58.000Z,7071
2023-10-26T11:13:59.000Z,6903
2023-10-26T11:14:59.000Z,6909
2023-10-26T11:16:00.000Z,6699
2023-10-26T11:17:05.000Z,6271
2023-10-26T11:18:05.000Z,5781
2023-10-26T11:19:06.000Z,5408
2023-10-26T11:20:07.000Z,5225
2023-10-26T11:21:07.000Z,5336
2023-10-26T11:22:15.000Z,5647
2023-10-26T11:23:16.000Z,5951
2023-10-26T11:24:17.000Z,6123
2023-10-26T11:25:17.000Z,6196
2023-10-26T11:26:19.000Z,6401
2023-10-26T11:27:22.000Z,6945
2023-10-26T11:28:23.000Z,7705
2023-10-26T11:29:24.000Z,8625
2023-10-26T11:30:24.000Z,9465
2023-10-26T11:31:25.000Z,10273
2023-10-26T11:32:27.000Z,11495
2023-10-26T11:33:31.000Z,13326
2023-10-26T11:34:38.000Z,15770
2023-10-26T11:35:39.000Z,18048
2023-10-26T11:36:40.000Z,19256
2023-10-26T11:37:40.000Z,19704
2023-10-26T11:38:41.000Z,20040
2023-10-26T11:39:42.000Z,21632
2023-10-26T11:40:42.000Z,23000
2023-10-26T11:41:43.000Z,22072
2023-10-26T11:42:44.000Z,19816
2023-10-26T11:43:44.000Z,18400
2023-10-26T11:44:45.000Z,17816
2023-10-26T11:45:45.000Z,17832
2023-10-26T11:46:46.000Z,18792
2023-10-26T11:47:47.000Z,17088
2023-10-26T11:48:55.000Z,14487
2023-10-26T11:49:55.000Z,13307
2023-10-26T11:50:56.000Z,12404
2023-10-26T11:51:57.000Z,12176
2023-10-26T11:53:05.000Z,11835
2023-10-26T11:54:06.000Z,11820
2023-10-26T11:55:07.000Z,11723
2023-10-26T11:56:14.000Z,11457
2023-10-26T11:57:15.000Z,11205
2023-10-26T11:58:16.000Z,10925
2023-10-26T11:59:16.000Z,9752
2023-10-26T12:00:17.000Z,8249
2023-10-26T12:01:18.000Z,7449
2023-10-26T12:02:21.000Z,6680
2023-10-26T12:03:22.000Z,6058
2023-10-26T12:04:23.000Z,5161
2023-10-26T12:05:23.000Z,4687
2023-10-26T12:06:24.000Z,4699
2023-10-26T12:07:24.000Z,4408
2023-10-26T12:08:25.000Z,3752
2023-10-26T12:09:26.000Z,3660
2023-10-26T12:10:26.000Z,3689
2023-10-26T12:11:27.000Z,3866
2023-10-26T12:12:28.000Z,4023
2023-10-26T12:13:28.000Z,4094
2023-10-26T12:14:29.000Z,4022
2023-10-26T12:15:30.000Z,3914
2023-10-26T12:16:30.000Z,3905
2023-10-26T12:17:41.000Z,3994
2023-10-26T12:18:41.000Z,4070
2023-10-26T12:19:42.000Z,4241
2023-10-26T12:20:43.000Z,4304
2023-10-26T12:21:43.000Z,4287
2023-10-26T12:22:44.000Z,4339
2023-10-26T12:23:45.000Z,4335
2023-10-26T12:24:45.000Z,4264
2023-10-26T12:25:46.000Z,4370
2023-10-26T12:26:46.000Z,4568
2023-10-26T12:27:47.000Z,4826
2023-10-26T12:28:48.000Z,5587
2023-10-26T12:29:48.000Z,6723
2023-10-26T12:30:49.000Z,7892
2023-10-26T12:31:50.000Z,8936
2023-10-26T12:32:51.000Z,8715
2023-10-26T12:33:52.000Z,8693
2023-10-26T12:34:52.000Z,9185
2023-10-26T12:36:03.000Z,9008
2023-10-26T12:37:04.000Z,9072
2023-10-26T12:38:04.000Z,10144
2023-10-26T12:39:05.000Z,11215
2023-10-26T12:40:05.000Z,10922
2023-10-26T12:41:06.000Z,10139
2023-10-26T12:42:07.000Z,10030
2023-10-26T12:43:07.000Z,10486
2023-10-26T12:44:11.000Z,10536
2023-10-26T12:45:12.000Z,10128
2023-10-26T12:46:12.000Z,10318
2023-10-26T12:47:13.000Z,11054
2023-10-26T12:48:14.000Z,11562
2023-10-26T12:49:14.000Z,11451
2023-10-26T12:50:22.000Z,11181
2023-10-26T12:51:30.000Z,11007
2023-10-26T12:52:30.000Z,10958
2023-10-26T12:53:31.000Z,11226
2023-10-26T12:54:32.000Z,11167
2023-10-26T12:55:32.000Z,10329
2023-10-26T12:56:33.000Z,9200
2023-10-26T12:57:34.000Z,8512
2023-10-26T12:58:34.000Z,7642
2023-10-26T12:59:35.000Z,8155
2023-10-26T13:00:35.000Z,7894
2023-10-26T13:01:36.000Z,7465
2023-10-26T13:02:37.000Z,7690
2023-10-26T13:03:37.000Z,7693
2023-10-26T13:04:38.000Z,7204
2023-10-26T13:05:39.000Z,7418
2023-10-26T13:06:39.000Z,7961
2023-10-26T13:07:40.000Z,8034
2023-10-26T13:08:48.000Z,7563
2023-10-26T13:09:48.000Z,7345
2023-10-26T13:10:49.000Z,8114
2023-10-26T13:11:50.000Z,8677
2023-10-26T13:12:50.000Z,8727
2023-10-26T13:13:51.000Z,9183
2023-10-26T13:14:52.000Z,9178
2023-10-26T13:15:52.000Z,9129
2023-10-26T13:16:53.000Z,8801
2023-10-26T13:17:54.000Z,8928
2023-10-26T13:18:54.000Z,8991
2023-10-26T13:19:55.000Z,9050
2023-10-26T13:20:55.000Z,8687
2023-10-26T13:21:56.000Z,7937
2023-10-26T13:22:57.000Z,6364
2023-10-26T13:24:04.000Z,4520
2023-10-26T13:25:05.000Z,4723
2023-10-26T13:26:06.000Z,5139
2023-10-26T13:27:06.000Z,5059
2023-10-26T13:28:07.000Z,4831
2023-10-26T13:29:08.000Z,4597
2023-10-26T13:30:08.000Z,4609
2023-10-26T13:31:16.000Z,4289
2023-10-26T13:32:17.000Z,3684
2023-10-26T13:33:17.000Z,2837
2023-10-26T13:34:28.000Z,2344
2023-10-26T13:35:28.000Z,2450
2023-10-26T13:36:29.000Z,2744
2023-10-26T13:37:30.000Z,3210
2023-10-26T13:38:32.000Z,3605
2023-10-26T13:39:32.000Z,3911
2023-10-26T13:40:40.000Z,3738
2023-10-26T13:41:41.000Z,3369
2023-10-26T13:42:44.000Z,3374
2023-10-26T13:43:45.000Z,3223
2023-10-26T13:44:46.000Z,3116
2023-10-26T13:45:46.000Z,3103
2023-10-26T13:46:47.000Z,2865
2023-10-26T13:47:47.000Z,2361
2023-10-26T13:48:48.000Z,2318
2023-10-26T13:49:49.000Z,2543
2023-10-26T13:50:49.000Z,2602
2023-10-26T13:51:50.000Z,2614
2023-10-26T13:52:51.000Z,2324
2023-10-26T13:53:51.000Z,1823
2023-10-26T13:54:52.000Z,1627
2023-10-26T13:55:53.000Z,1745
2023-10-26T13:56:53.000Z,1748
2023-10-26T13:57:54.000Z,1558
2023-10-26T13:58:55.000Z,1495
2023-10-26T13:59:55.000Z,1521
2023-10-26T14:00:56.000Z,1665
2023-10-26T14:01:56.000Z,1986
2023-10-26T14:02:57.000Z,2063
2023-10-26T14:03:58.000Z,1796
2023-10-26T14:04:58.000Z,1887
2023-10-26T14:06:00.000Z,2144